Historyczne dane pomiarowe

Dodano dane terminowe – wersja testowa.

Dane z okresu 1951-2019

Wersja bazy: 1.34 [2019-03-16, lista zmian], aktualizacja planowana na 2019-04-15

Dane meteo z obszaru Polski uzyskane na podstawie danych udostępnionych przez Instytut Meteorologii i Gospodarki Wodnej – Państwowy Instytut Badawczy.

 

Wybierz Datę:    

       

TemperaturaWilgotnośćWiatrCiśnienieOpadyŚniegCzas trwania zjawisk
 Stacja t tx tn tng RH VA  wxwx mslp ppp RRR   cm mm wxwxwxwxwxwxwx
1962-02-25 -5.3 -3.0-10.5- 85.3- 7.7 5.0---- 6.0-- 10---------
1962-02-26 -3.8 -2.3 -4.5- 85.8- 8.0 3.3---- 0.0-- 16---------
1962-02-27 -5.4 -3.8 -6.3- 80.0- 8.0 2.7---- 0.0-- 16---------
1962-02-28 -7.5 -4.8-14.4- 82.5- 7.3 1.3---- 0.0-- 16---------
1962-03-01 -5.4 -3.6 -6.3- 87.5- 8.0 0.7---- 0.0-- 14---------
1962-03-02 -5.7 -2.8-10.2- 76.3- 7.3 0.0---- 0.0-- 14---------
1962-03-03 -4.2 2.6 -7.0- 83.3- 4.7 0.7---- 0.0-- 14---------
1962-03-04 1.9 5.8 -7.7- 86.8- 7.3 2.0---- 3.9-- 11---------
1962-03-05 2.0 3.7 0.9- 97.5- 8.0 0.3---- 3.4-- 10---------
1962-03-06 1.3 7.5 -0.5- 87.3- 7.3 4.0---- 0.1-- 6---------
1962-03-07 -1.6 0.5 -2.9- 90.0- 7.3 4.3---- 0.1-- 4---------
1962-03-08 -2.4 -0.1 -6.4- 79.0- 2.3 2.7---- 0.0-- 4---------
1962-03-09 -3.3 0.0 -4.9- 76.5- 4.3 2.0---- 0.0------------
1962-03-10 -2.0 1.6 -6.9- 66.0- 5.0 11.0---- 0.0------------
1962-03-11 1.7 6.2 -2.3- 82.5- 7.3 3.7---- 0.0------------
1962-03-12 0.7 2.0 -0.1- 93.5- 8.0 2.0---- 8.9------------
1962-03-13 -3.7 0.4 -6.1- 84.0- 7.3 6.3---- 2.1-- 9---------
1962-03-14 -6.9 -2.3 -8.7- 76.0- 1.0 4.7---- 0.0-- 11---------
1962-03-15 -6.5 -3.3-11.1- 79.0- 7.7 0.0---- 0.0-- 9---------
1962-03-16 -6.4 -4.8 -7.7- 85.0- 8.0 6.3---- 14.5-- 9---------
1962-03-17 -5.0 -3.8 -7.9- 87.0- 8.0 5.0---- 11.1-- 21---------
1962-03-18 -4.6 -1.1 -7.1- 71.0- 2.7 5.3---- 0.0-- 30---------
1962-03-19 -8.1 -0.6-15.2- 83.8- 4.7 1.0---- 0.0-- 26---------
1962-03-20 -7.9 0.7-11.8- 73.8- 3.7 0.3---- 0.0-- 20---------
1962-03-21 -8.5 -0.8-18.6- 75.8- 1.3 0.7---- 0.0-- 20---------
1962-03-22 -4.6 -1.8-11.7- 86.0- 8.0 2.7---- 2.2-- 19---------
1962-03-23 -0.4 1.8 -3.4- 93.0- 8.0 1.3---- 9.1-- 20---------
1962-03-24 -3.2 0.0 -5.4- 91.5- 5.3 0.7---- 0.5-- 28---------
1962-03-25 -8.0 0.4-15.6- 75.5- 1.3 0.0---- 0.0-- 22---------
1962-03-26 -8.4 0.0-20.0- 74.5- 2.7 0.7---- 0.0-- 20---------
181.2 ms

 

Źródłem pochodzenia danych jest Instytut Meteorologii i Gospodarki Wodnej – Państwowy Instytut Badawczy. Dane Instytutu Meteorologii i Gospodarki Wodnej – Państwowego Instytutu Badawczego zostały przetworzone.

Dane źródłowe można odnaleźć na stronie https://dane.imgw.pl